sensor_id;sensor_type;location;lat;lon;timestamp;P1;durP1;ratioP1;P2;durP2;ratioP2
62673;SDS011;62269;47.594;17.638;2022-07-29T00:00:25;7.72;;;6.90;;
62673;SDS011;62269;47.594;17.638;2022-07-29T00:01:15;9.35;;;7.50;;
62673;SDS011;62269;47.594;17.638;2022-07-29T00:02:05;8.63;;;7.28;;
62673;SDS011;62269;47.594;17.638;2022-07-29T00:02:52;8.05;;;7.25;;
62673;SDS011;62269;47.594;17.638;2022-07-29T00:03:38;8.00;;;6.97;;
62673;SDS011;62269;47.594;17.638;2022-07-29T00:04:26;8.20;;;7.40;;
62673;SDS011;62269;47.594;17.638;2022-07-29T00:05:13;7.65;;;6.82;;
62673;SDS011;62269;47.594;17.638;2022-07-29T00:06:00;7.95;;;7.15;;
62673;SDS011;62269;47.594;17.638;2022-07-29T00:06:46;8.27;;;7.37;;
62673;SDS011;62269;47.594;17.638;2022-07-29T00:07:33;9.05;;;7.78;;
62673;SDS011;62269;47.594;17.638;2022-07-29T00:08:20;8.23;;;7.43;;
62673;SDS011;62269;47.594;17.638;2022-07-29T00:09:09;7.85;;;7.15;;
62673;SDS011;62269;47.594;17.638;2022-07-29T00:09:55;10.40;;;7.30;;
62673;SDS011;62269;47.594;17.638;2022-07-29T00:10:42;8.25;;;7.10;;
62673;SDS011;62269;47.594;17.638;2022-07-29T00:11:29;8.82;;;7.03;;
62673;SDS011;62269;47.594;17.638;2022-07-29T00:12:16;10.05;;;7.25;;
62673;SDS011;62269;47.594;17.638;2022-07-29T00:13:11;7.97;;;7.18;;
62673;SDS011;62269;47.594;17.638;2022-07-29T00:13:57;8.70;;;7.87;;
62673;SDS011;62269;47.594;17.638;2022-07-29T00:14:44;9.75;;;7.25;;
62673;SDS011;62269;47.594;17.638;2022-07-29T00:15:33;7.82;;;6.90;;
62673;SDS011;62269;47.594;17.638;2022-07-29T00:16:20;8.63;;;7.60;;
62673;SDS011;62269;47.594;17.638;2022-07-29T00:17:07;8.15;;;7.35;;
62673;SDS011;62269;47.594;17.638;2022-07-29T00:17:54;8.20;;;7.40;;
62673;SDS011;62269;47.594;17.638;2022-07-29T00:18:40;8.45;;;7.28;;
62673;SDS011;62269;47.594;17.638;2022-07-29T00:19:27;8.23;;;7.43;;
62673;SDS011;62269;47.594;17.638;2022-07-29T00:20:14;7.75;;;7.00;;
62673;SDS011;62269;47.594;17.638;2022-07-29T00:21:01;11.63;;;7.25;;
62673;SDS011;62269;47.594;17.638;2022-07-29T00:21:48;7.57;;;6.85;;
62673;SDS011;62269;47.594;17.638;2022-07-29T00:22:38;9.05;;;7.75;;
62673;SDS011;62269;47.594;17.638;2022-07-29T00:23:25;7.78;;;7.03;;
62673;SDS011;62269;47.594;17.638;2022-07-29T00:24:12;8.02;;;7.22;;
62673;SDS011;62269;47.594;17.638;2022-07-29T00:24:59;8.73;;;7.50;;
62673;SDS011;62269;47.594;17.638;2022-07-29T00:25:46;8.68;;;7.05;;
62673;SDS011;62269;47.594;17.638;2022-07-29T00:26:33;7.93;;;7.10;;
62673;SDS011;62269;47.594;17.638;2022-07-29T00:27:20;8.00;;;7.28;;
62673;SDS011;62269;47.594;17.638;2022-07-29T00:28:07;8.88;;;7.85;;
62673;SDS011;62269;47.594;17.638;2022-07-29T00:28:54;7.65;;;6.90;;
62673;SDS011;62269;47.594;17.638;2022-07-29T00:30:01;8.00;;;7.20;;
62673;SDS011;62269;47.594;17.638;2022-07-29T00:30:49;8.23;;;6.78;;
62673;SDS011;62269;47.594;17.638;2022-07-29T00:31:36;7.82;;;7.12;;
62673;SDS011;62269;47.594;17.638;2022-07-29T00:32:23;8.25;;;7.45;;
62673;SDS011;62269;47.594;17.638;2022-07-29T00:33:10;8.38;;;7.20;;
62673;SDS011;62269;47.594;17.638;2022-07-29T00:33:57;8.77;;;7.87;;
62673;SDS011;62269;47.594;17.638;2022-07-29T00:34:44;9.63;;;7.70;;
62673;SDS011;62269;47.594;17.638;2022-07-29T00:35:49;8.63;;;7.43;;
62673;SDS011;62269;47.594;17.638;2022-07-29T00:36:38;8.40;;;7.57;;
62673;SDS011;62269;47.594;17.638;2022-07-29T00:37:25;8.18;;;7.45;;
62673;SDS011;62269;47.594;17.638;2022-07-29T00:38:12;9.50;;;7.47;;
62673;SDS011;62269;47.594;17.638;2022-07-29T00:39:00;7.50;;;6.80;;
62673;SDS011;62269;47.594;17.638;2022-07-29T00:39:47;8.32;;;7.53;;
62673;SDS011;62269;47.594;17.638;2022-07-29T00:40:33;8.75;;;7.95;;
62673;SDS011;62269;47.594;17.638;2022-07-29T00:41:20;10.90;;;7.55;;
62673;SDS011;62269;47.594;17.638;2022-07-29T00:42:07;8.30;;;7.50;;
62673;SDS011;62269;47.594;17.638;2022-07-29T00:42:55;9.70;;;7.20;;
62673;SDS011;62269;47.594;17.638;2022-07-29T00:43:44;7.78;;;7.07;;
62673;SDS011;62269;47.594;17.638;2022-07-29T00:44:35;9.77;;;7.05;;
62673;SDS011;62269;47.594;17.638;2022-07-29T00:45:25;8.88;;;7.45;;
62673;SDS011;62269;47.594;17.638;2022-07-29T00:46:12;7.90;;;7.10;;
62673;SDS011;62269;47.594;17.638;2022-07-29T00:46:59;8.50;;;7.60;;
62673;SDS011;62269;47.594;17.638;2022-07-29T00:47:46;9.00;;;8.10;;
62673;SDS011;62269;47.594;17.638;2022-07-29T00:48:33;8.40;;;7.60;;
62673;SDS011;62269;47.594;17.638;2022-07-29T00:49:20;7.80;;;7.07;;
62673;SDS011;62269;47.594;17.638;2022-07-29T00:50:07;8.70;;;7.28;;
62673;SDS011;62269;47.594;17.638;2022-07-29T00:50:57;8.90;;;7.97;;
62673;SDS011;62269;47.594;17.638;2022-07-29T00:51:44;9.57;;;8.35;;
62673;SDS011;62269;47.594;17.638;2022-07-29T00:52:32;9.68;;;7.85;;
62673;SDS011;62269;47.594;17.638;2022-07-29T00:53:19;8.27;;;7.07;;
62673;SDS011;62269;47.594;17.638;2022-07-29T00:54:07;8.32;;;7.03;;
62673;SDS011;62269;47.594;17.638;2022-07-29T00:54:54;8.27;;;7.47;;
62673;SDS011;62269;47.594;17.638;2022-07-29T00:55:40;8.80;;;7.85;;
62673;SDS011;62269;47.594;17.638;2022-07-29T00:56:27;8.90;;;8.10;;
62673;SDS011;62269;47.594;17.638;2022-07-29T00:57:16;8.88;;;7.70;;
62673;SDS011;62269;47.594;17.638;2022-07-29T00:58:03;9.00;;;8.10;;
62673;SDS011;62269;47.594;17.638;2022-07-29T00:58:50;8.70;;;7.80;;
62673;SDS011;62269;47.594;17.638;2022-07-29T00:59:37;8.48;;;7.40;;
62673;SDS011;62269;47.594;17.638;2022-07-29T01:00:26;8.38;;;7.50;;
62673;SDS011;62269;47.594;17.638;2022-07-29T01:01:13;8.73;;;7.82;;
62673;SDS011;62269;47.594;17.638;2022-07-29T01:02:02;8.90;;;8.00;;
62673;SDS011;62269;47.594;17.638;2022-07-29T01:02:49;8.90;;;7.65;;
62673;SDS011;62269;47.594;17.638;2022-07-29T01:03:37;7.72;;;7.03;;
62673;SDS011;62269;47.594;17.638;2022-07-29T01:04:23;8.30;;;7.50;;
62673;SDS011;62269;47.594;17.638;2022-07-29T01:05:11;8.68;;;7.87;;
62673;SDS011;62269;47.594;17.638;2022-07-29T01:05:58;8.80;;;7.97;;
62673;SDS011;62269;47.594;17.638;2022-07-29T01:06:46;8.73;;;7.72;;
62673;SDS011;62269;47.594;17.638;2022-07-29T01:07:36;8.95;;;8.05;;
62673;SDS011;62269;47.594;17.638;2022-07-29T01:08:23;15.45;;;7.95;;
62673;SDS011;62269;47.594;17.638;2022-07-29T01:09:10;7.78;;;7.07;;
62673;SDS011;62269;47.594;17.638;2022-07-29T01:09:58;8.73;;;7.60;;
62673;SDS011;62269;47.594;17.638;2022-07-29T01:10:45;9.85;;;8.00;;
62673;SDS011;62269;47.594;17.638;2022-07-29T01:11:33;8.10;;;7.30;;
62673;SDS011;62269;47.594;17.638;2022-07-29T01:12:24;8.63;;;7.82;;
62673;SDS011;62269;47.594;17.638;2022-07-29T01:13:12;9.10;;;8.18;;
62673;SDS011;62269;47.594;17.638;2022-07-29T01:14:01;8.18;;;7.37;;
62673;SDS011;62269;47.594;17.638;2022-07-29T01:14:48;9.00;;;7.30;;
62673;SDS011;62269;47.594;17.638;2022-07-29T01:15:38;9.45;;;7.97;;
62673;SDS011;62269;47.594;17.638;2022-07-29T01:16:45;7.78;;;7.07;;
62673;SDS011;62269;47.594;17.638;2022-07-29T01:18:53;8.80;;;7.87;;
62673;SDS011;62269;47.594;17.638;2022-07-29T01:20:54;8.57;;;7.70;;
62673;SDS011;62269;47.594;17.638;2022-07-29T01:21:53;10.27;;;7.62;;
62673;SDS011;62269;47.594;17.638;2022-07-29T01:23:48;8.55;;;7.65;;
62673;SDS011;62269;47.594;17.638;2022-07-29T01:26:18;8.73;;;7.62;;
62673;SDS011;62269;47.594;17.638;2022-07-29T01:29:44;7.90;;;7.10;;
62673;SDS011;62269;47.594;17.638;2022-07-29T01:30:32;8.55;;;7.50;;
62673;SDS011;62269;47.594;17.638;2022-07-29T01:31:56;8.60;;;7.80;;
62673;SDS011;62269;47.594;17.638;2022-07-29T01:32:47;8.73;;;7.22;;
62673;SDS011;62269;47.594;17.638;2022-07-29T01:33:38;8.55;;;7.72;;
62673;SDS011;62269;47.594;17.638;2022-07-29T01:34:57;7.90;;;7.07;;
62673;SDS011;62269;47.594;17.638;2022-07-29T01:35:54;8.90;;;8.10;;
62673;SDS011;62269;47.594;17.638;2022-07-29T01:36:45;8.38;;;7.47;;
62673;SDS011;62269;47.594;17.638;2022-07-29T01:37:39;9.05;;;7.80;;
62673;SDS011;62269;47.594;17.638;2022-07-29T01:38:30;8.07;;;7.28;;
62673;SDS011;62269;47.594;17.638;2022-07-29T01:39:27;8.52;;;7.72;;
62673;SDS011;62269;47.594;17.638;2022-07-29T01:40:33;8.57;;;7.40;;
62673;SDS011;62269;47.594;17.638;2022-07-29T01:41:22;9.05;;;7.20;;
62673;SDS011;62269;47.594;17.638;2022-07-29T01:42:20;8.63;;;7.72;;
62673;SDS011;62269;47.594;17.638;2022-07-29T01:43:34;8.93;;;7.78;;
62673;SDS011;62269;47.594;17.638;2022-07-29T01:44:27;8.98;;;7.82;;
62673;SDS011;62269;47.594;17.638;2022-07-29T01:45:20;8.80;;;7.53;;
62673;SDS011;62269;47.594;17.638;2022-07-29T01:46:11;8.98;;;8.02;;
62673;SDS011;62269;47.594;17.638;2022-07-29T01:47:02;8.85;;;7.62;;
62673;SDS011;62269;47.594;17.638;2022-07-29T01:47:58;8.90;;;8.00;;
62673;SDS011;62269;47.594;17.638;2022-07-29T01:48:51;8.90;;;8.00;;
62673;SDS011;62269;47.594;17.638;2022-07-29T01:49:41;9.63;;;8.20;;
62673;SDS011;62269;47.594;17.638;2022-07-29T01:50:33;8.55;;;7.72;;
62673;SDS011;62269;47.594;17.638;2022-07-29T01:51:29;8.50;;;7.70;;
62673;SDS011;62269;47.594;17.638;2022-07-29T01:52:33;8.50;;;7.50;;
62673;SDS011;62269;47.594;17.638;2022-07-29T01:53:27;8.73;;;7.85;;
62673;SDS011;62269;47.594;17.638;2022-07-29T01:54:29;9.93;;;7.43;;
62673;SDS011;62269;47.594;17.638;2022-07-29T01:55:19;8.50;;;7.70;;
62673;SDS011;62269;47.594;17.638;2022-07-29T01:56:07;9.93;;;8.35;;
62673;SDS011;62269;47.594;17.638;2022-07-29T01:56:55;8.45;;;7.55;;
62673;SDS011;62269;47.594;17.638;2022-07-29T01:57:44;8.73;;;7.65;;
62673;SDS011;62269;47.594;17.638;2022-07-29T01:58:33;10.80;;;8.18;;
62673;SDS011;62269;47.594;17.638;2022-07-29T01:59:21;9.18;;;7.68;;
62673;SDS011;62269;47.594;17.638;2022-07-29T02:00:10;12.15;;;7.85;;
62673;SDS011;62269;47.594;17.638;2022-07-29T02:00:58;8.48;;;7.57;;
62673;SDS011;62269;47.594;17.638;2022-07-29T02:01:46;9.20;;;8.07;;
62673;SDS011;62269;47.594;17.638;2022-07-29T02:02:40;9.82;;;7.30;;
62673;SDS011;62269;47.594;17.638;2022-07-29T02:03:28;10.10;;;8.20;;
62673;SDS011;62269;47.594;17.638;2022-07-29T02:04:16;8.45;;;7.65;;
62673;SDS011;62269;47.594;17.638;2022-07-29T02:05:15;8.13;;;7.32;;
62673;SDS011;62269;47.594;17.638;2022-07-29T02:06:04;9.23;;;8.18;;
62673;SDS011;62269;47.594;17.638;2022-07-29T02:06:52;8.75;;;7.90;;
62673;SDS011;62269;47.594;17.638;2022-07-29T02:07:41;8.40;;;7.60;;
62673;SDS011;62269;47.594;17.638;2022-07-29T02:08:29;8.85;;;7.90;;
62673;SDS011;62269;47.594;17.638;2022-07-29T02:09:17;8.80;;;7.60;;
62673;SDS011;62269;47.594;17.638;2022-07-29T02:10:06;9.57;;;7.87;;
62673;SDS011;62269;47.594;17.638;2022-07-29T02:10:53;8.75;;;7.90;;
62673;SDS011;62269;47.594;17.638;2022-07-29T02:11:42;8.93;;;8.13;;
62673;SDS011;62269;47.594;17.638;2022-07-29T02:12:34;8.73;;;7.93;;
62673;SDS011;62269;47.594;17.638;2022-07-29T02:13:22;9.00;;;7.70;;
62673;SDS011;62269;47.594;17.638;2022-07-29T02:14:10;9.00;;;8.10;;
62673;SDS011;62269;47.594;17.638;2022-07-29T02:14:58;10.73;;;7.57;;
62673;SDS011;62269;47.594;17.638;2022-07-29T02:15:46;8.07;;;7.37;;
62673;SDS011;62269;47.594;17.638;2022-07-29T02:16:34;8.80;;;7.90;;
62673;SDS011;62269;47.594;17.638;2022-07-29T02:17:25;10.02;;;7.93;;
62673;SDS011;62269;47.594;17.638;2022-07-29T02:18:16;9.85;;;7.50;;
62673;SDS011;62269;47.594;17.638;2022-07-29T02:19:04;8.25;;;7.45;;
62673;SDS011;62269;47.594;17.638;2022-07-29T02:19:56;8.80;;;7.55;;
62673;SDS011;62269;47.594;17.638;2022-07-29T02:20:50;8.10;;;7.30;;
62673;SDS011;62269;47.594;17.638;2022-07-29T02:21:38;9.20;;;8.30;;
62673;SDS011;62269;47.594;17.638;2022-07-29T02:22:26;8.55;;;7.75;;
62673;SDS011;62269;47.594;17.638;2022-07-29T02:24:07;7.62;;;6.93;;
62673;SDS011;62269;47.594;17.638;2022-07-29T02:24:57;8.00;;;7.30;;
62673;SDS011;62269;47.594;17.638;2022-07-29T02:25:48;8.02;;;7.22;;
62673;SDS011;62269;47.594;17.638;2022-07-29T02:26:37;10.30;;;8.00;;
62673;SDS011;62269;47.594;17.638;2022-07-29T02:27:24;8.82;;;7.80;;
62673;SDS011;62269;47.594;17.638;2022-07-29T02:28:13;8.65;;;7.65;;
62673;SDS011;62269;47.594;17.638;2022-07-29T02:29:00;8.32;;;7.43;;
62673;SDS011;62269;47.594;17.638;2022-07-29T02:29:48;11.43;;;7.85;;
62673;SDS011;62269;47.594;17.638;2022-07-29T02:30:36;10.15;;;7.47;;
62673;SDS011;62269;47.594;17.638;2022-07-29T02:31:28;8.82;;;7.90;;
62673;SDS011;62269;47.594;17.638;2022-07-29T02:32:17;8.00;;;7.20;;
62673;SDS011;62269;47.594;17.638;2022-07-29T02:33:04;8.65;;;7.70;;
62673;SDS011;62269;47.594;17.638;2022-07-29T02:33:52;8.40;;;7.43;;
62673;SDS011;62269;47.594;17.638;2022-07-29T02:34:40;8.55;;;7.57;;
62673;SDS011;62269;47.594;17.638;2022-07-29T02:35:28;8.20;;;7.40;;
62673;SDS011;62269;47.594;17.638;2022-07-29T02:36:21;8.95;;;8.00;;
62673;SDS011;62269;47.594;17.638;2022-07-29T02:37:09;8.48;;;7.68;;
62673;SDS011;62269;47.594;17.638;2022-07-29T02:37:56;8.68;;;7.75;;
62673;SDS011;62269;47.594;17.638;2022-07-29T02:39:02;9.40;;;7.93;;
62673;SDS011;62269;47.594;17.638;2022-07-29T02:39:49;7.97;;;7.20;;
62673;SDS011;62269;47.594;17.638;2022-07-29T02:40:39;10.27;;;8.57;;
62673;SDS011;62269;47.594;17.638;2022-07-29T02:42:29;9.13;;;7.90;;
62673;SDS011;62269;47.594;17.638;2022-07-29T02:43:16;8.82;;;7.95;;
62673;SDS011;62269;47.594;17.638;2022-07-29T02:44:05;8.70;;;7.80;;
62673;SDS011;62269;47.594;17.638;2022-07-29T02:44:55;9.40;;;7.70;;
62673;SDS011;62269;47.594;17.638;2022-07-29T02:45:42;8.10;;;7.30;;
62673;SDS011;62269;47.594;17.638;2022-07-29T02:46:33;8.90;;;7.55;;
62673;SDS011;62269;47.594;17.638;2022-07-29T02:48:13;8.38;;;7.60;;
62673;SDS011;62269;47.594;17.638;2022-07-29T02:49:04;10.68;;;7.30;;
62673;SDS011;62269;47.594;17.638;2022-07-29T02:49:57;8.55;;;7.75;;
62673;SDS011;62269;47.594;17.638;2022-07-29T02:50:51;8.57;;;7.75;;
62673;SDS011;62269;47.594;17.638;2022-07-29T02:51:46;8.43;;;7.62;;
62673;SDS011;62269;47.594;17.638;2022-07-29T02:52:39;10.60;;;7.47;;
62673;SDS011;62269;47.594;17.638;2022-07-29T02:53:29;9.85;;;7.87;;
62673;SDS011;62269;47.594;17.638;2022-07-29T02:54:21;8.63;;;7.75;;
62673;SDS011;62269;47.594;17.638;2022-07-29T02:56:51;8.38;;;7.37;;
62673;SDS011;62269;47.594;17.638;2022-07-29T02:57:41;7.57;;;6.87;;
62673;SDS011;62269;47.594;17.638;2022-07-29T02:58:41;7.97;;;7.18;;
62673;SDS011;62269;47.594;17.638;2022-07-29T02:59:32;7.90;;;7.20;;
62673;SDS011;62269;47.594;17.638;2022-07-29T03:00:20;8.48;;;7.57;;
62673;SDS011;62269;47.594;17.638;2022-07-29T03:01:10;9.80;;;7.28;;
62673;SDS011;62269;47.594;17.638;2022-07-29T03:02:07;8.73;;;7.93;;
62673;SDS011;62269;47.594;17.638;2022-07-29T03:02:59;9.75;;;7.50;;
62673;SDS011;62269;47.594;17.638;2022-07-29T03:03:48;8.80;;;7.22;;
62673;SDS011;62269;47.594;17.638;2022-07-29T03:04:36;7.97;;;7.18;;
62673;SDS011;62269;47.594;17.638;2022-07-29T03:05:26;10.05;;;7.62;;
62673;SDS011;62269;47.594;17.638;2022-07-29T03:06:13;8.77;;;7.70;;
62673;SDS011;62269;47.594;17.638;2022-07-29T03:07:21;9.68;;;8.15;;
62673;SDS011;62269;47.594;17.638;2022-07-29T03:08:10;8.18;;;7.37;;
62673;SDS011;62269;47.594;17.638;2022-07-29T03:08:58;8.60;;;7.80;;
62673;SDS011;62269;47.594;17.638;2022-07-29T03:09:46;9.32;;;7.10;;
62673;SDS011;62269;47.594;17.638;2022-07-29T03:10:33;9.63;;;7.30;;
62673;SDS011;62269;47.594;17.638;2022-07-29T03:11:21;9.13;;;7.50;;
62673;SDS011;62269;47.594;17.638;2022-07-29T03:12:28;10.93;;;7.50;;
62673;SDS011;62269;47.594;17.638;2022-07-29T03:13:15;10.10;;;7.47;;
62673;SDS011;62269;47.594;17.638;2022-07-29T03:14:02;9.85;;;7.18;;
62673;SDS011;62269;47.594;17.638;2022-07-29T03:14:51;8.55;;;7.65;;
62673;SDS011;62269;47.594;17.638;2022-07-29T03:15:38;9.38;;;7.30;;
62673;SDS011;62269;47.594;17.638;2022-07-29T03:16:25;9.57;;;7.30;;
62673;SDS011;62269;47.594;17.638;2022-07-29T03:17:12;7.82;;;7.12;;
62673;SDS011;62269;47.594;17.638;2022-07-29T03:17:59;8.98;;;8.07;;
62673;SDS011;62269;47.594;17.638;2022-07-29T03:18:46;9.05;;;8.15;;
62673;SDS011;62269;47.594;17.638;2022-07-29T03:19:33;8.90;;;7.40;;
62673;SDS011;62269;47.594;17.638;2022-07-29T03:20:20;10.43;;;7.32;;
62673;SDS011;62269;47.594;17.638;2022-07-29T03:21:07;8.73;;;7.12;;
62673;SDS011;62269;47.594;17.638;2022-07-29T03:21:57;10.80;;;7.55;;
62673;SDS011;62269;47.594;17.638;2022-07-29T03:23:34;8.45;;;7.40;;
62673;SDS011;62269;47.594;17.638;2022-07-29T03:24:25;8.07;;;7.10;;
62673;SDS011;62269;47.594;17.638;2022-07-29T03:25:18;8.57;;;7.45;;
62673;SDS011;62269;47.594;17.638;2022-07-29T03:26:05;7.90;;;6.97;;
62673;SDS011;62269;47.594;17.638;2022-07-29T03:26:52;9.63;;;7.05;;
62673;SDS011;62269;47.594;17.638;2022-07-29T03:27:40;8.75;;;7.28;;
62673;SDS011;62269;47.594;17.638;2022-07-29T03:28:27;8.25;;;7.03;;
62673;SDS011;62269;47.594;17.638;2022-07-29T03:29:14;8.68;;;7.78;;
62673;SDS011;62269;47.594;17.638;2022-07-29T03:30:05;8.02;;;7.18;;
62673;SDS011;62269;47.594;17.638;2022-07-29T03:30:54;8.02;;;7.15;;
62673;SDS011;62269;47.594;17.638;2022-07-29T03:31:41;7.65;;;6.85;;
62673;SDS011;62269;47.594;17.638;2022-07-29T03:32:28;7.78;;;7.03;;
62673;SDS011;62269;47.594;17.638;2022-07-29T03:33:16;7.78;;;6.97;;
62673;SDS011;62269;47.594;17.638;2022-07-29T03:34:02;8.68;;;7.35;;
62673;SDS011;62269;47.594;17.638;2022-07-29T03:34:49;8.77;;;7.18;;
62673;SDS011;62269;47.594;17.638;2022-07-29T03:35:36;9.52;;;7.75;;
62673;SDS011;62269;47.594;17.638;2022-07-29T03:36:23;7.90;;;7.20;;
62673;SDS011;62269;47.594;17.638;2022-07-29T03:37:11;8.32;;;7.43;;
62673;SDS011;62269;47.594;17.638;2022-07-29T03:37:58;10.35;;;7.35;;
62673;SDS011;62269;47.594;17.638;2022-07-29T03:38:45;8.52;;;7.62;;
62673;SDS011;62269;47.594;17.638;2022-07-29T03:39:33;7.90;;;7.12;;
62673;SDS011;62269;47.594;17.638;2022-07-29T03:40:26;8.32;;;7.57;;
62673;SDS011;62269;47.594;17.638;2022-07-29T03:41:15;8.35;;;6.75;;
62673;SDS011;62269;47.594;17.638;2022-07-29T03:42:08;8.20;;;7.43;;
62673;SDS011;62269;47.594;17.638;2022-07-29T03:42:57;7.78;;;6.97;;
62673;SDS011;62269;47.594;17.638;2022-07-29T03:43:45;9.50;;;7.35;;
62673;SDS011;62269;47.594;17.638;2022-07-29T03:44:35;9.20;;;7.10;;
62673;SDS011;62269;47.594;17.638;2022-07-29T03:45:22;7.32;;;6.62;;
62673;SDS011;62269;47.594;17.638;2022-07-29T03:46:10;8.38;;;7.45;;
62673;SDS011;62269;47.594;17.638;2022-07-29T03:46:58;7.85;;;6.90;;
62673;SDS011;62269;47.594;17.638;2022-07-29T03:47:48;7.45;;;6.70;;
62673;SDS011;62269;47.594;17.638;2022-07-29T03:48:46;7.65;;;6.95;;
62673;SDS011;62269;47.594;17.638;2022-07-29T03:49:36;8.35;;;7.32;;
62673;SDS011;62269;47.594;17.638;2022-07-29T03:50:23;8.02;;;7.22;;
62673;SDS011;62269;47.594;17.638;2022-07-29T03:51:10;8.15;;;6.53;;
62673;SDS011;62269;47.594;17.638;2022-07-29T03:51:57;10.15;;;7.60;;
62673;SDS011;62269;47.594;17.638;2022-07-29T03:52:43;8.10;;;7.30;;
62673;SDS011;62269;47.594;17.638;2022-07-29T03:53:30;9.70;;;7.87;;
62673;SDS011;62269;47.594;17.638;2022-07-29T03:54:18;7.43;;;6.68;;
62673;SDS011;62269;47.594;17.638;2022-07-29T03:55:07;8.00;;;7.22;;
62673;SDS011;62269;47.594;17.638;2022-07-29T03:55:57;7.62;;;6.93;;
62673;SDS011;62269;47.594;17.638;2022-07-29T03:56:46;8.02;;;7.00;;
62673;SDS011;62269;47.594;17.638;2022-07-29T03:57:35;7.95;;;7.15;;
62673;SDS011;62269;47.594;17.638;2022-07-29T03:58:22;8.82;;;6.72;;
62673;SDS011;62269;47.594;17.638;2022-07-29T03:59:09;7.60;;;6.80;;
62673;SDS011;62269;47.594;17.638;2022-07-29T03:59:57;7.87;;;7.07;;
62673;SDS011;62269;47.594;17.638;2022-07-29T04:00:44;7.65;;;6.78;;
62673;SDS011;62269;47.594;17.638;2022-07-29T04:01:32;8.38;;;6.68;;
62673;SDS011;62269;47.594;17.638;2022-07-29T04:02:20;7.07;;;6.37;;
62673;SDS011;62269;47.594;17.638;2022-07-29T04:03:12;7.65;;;6.82;;
62673;SDS011;62269;47.594;17.638;2022-07-29T04:04:01;7.62;;;6.90;;
62673;SDS011;62269;47.594;17.638;2022-07-29T04:04:48;7.68;;;6.87;;
62673;SDS011;62269;47.594;17.638;2022-07-29T04:05:35;7.28;;;6.57;;
62673;SDS011;62269;47.594;17.638;2022-07-29T04:06:22;7.47;;;6.65;;
62673;SDS011;62269;47.594;17.638;2022-07-29T04:07:13;7.55;;;6.80;;
62673;SDS011;62269;47.594;17.638;2022-07-29T04:08:00;7.75;;;6.68;;
62673;SDS011;62269;47.594;17.638;2022-07-29T04:08:47;8.50;;;7.43;;
62673;SDS011;62269;47.594;17.638;2022-07-29T04:09:34;10.40;;;7.87;;
62673;SDS011;62269;47.594;17.638;2022-07-29T04:10:21;7.85;;;7.03;;
62673;SDS011;62269;47.594;17.638;2022-07-29T04:11:17;7.70;;;6.90;;
62673;SDS011;62269;47.594;17.638;2022-07-29T04:12:04;7.72;;;6.90;;
62673;SDS011;62269;47.594;17.638;2022-07-29T04:12:51;8.55;;;7.35;;
62673;SDS011;62269;47.594;17.638;2022-07-29T04:13:38;7.60;;;6.90;;
62673;SDS011;62269;47.594;17.638;2022-07-29T04:14:25;7.62;;;6.93;;
62673;SDS011;62269;47.594;17.638;2022-07-29T04:15:12;7.40;;;6.70;;
62673;SDS011;62269;47.594;17.638;2022-07-29T04:15:59;7.45;;;6.75;;
62673;SDS011;62269;47.594;17.638;2022-07-29T04:16:46;8.68;;;6.93;;
62673;SDS011;62269;47.594;17.638;2022-07-29T04:17:33;7.93;;;6.47;;
62673;SDS011;62269;47.594;17.638;2022-07-29T04:18:20;8.52;;;6.87;;
62673;SDS011;62269;47.594;17.638;2022-07-29T04:19:07;8.25;;;6.80;;
62673;SDS011;62269;47.594;17.638;2022-07-29T04:19:54;6.80;;;6.20;;
62673;SDS011;62269;47.594;17.638;2022-07-29T04:20:40;7.32;;;6.62;;
62673;SDS011;62269;47.594;17.638;2022-07-29T04:21:27;8.15;;;6.37;;
62673;SDS011;62269;47.594;17.638;2022-07-29T04:22:14;8.15;;;5.95;;
62673;SDS011;62269;47.594;17.638;2022-07-29T04:23:01;7.05;;;5.90;;
62673;SDS011;62269;47.594;17.638;2022-07-29T04:23:48;6.82;;;6.05;;
62673;SDS011;62269;47.594;17.638;2022-07-29T04:24:39;6.78;;;5.70;;
62673;SDS011;62269;47.594;17.638;2022-07-29T04:25:29;6.75;;;6.12;;
62673;SDS011;62269;47.594;17.638;2022-07-29T04:26:17;7.30;;;5.47;;
62673;SDS011;62269;47.594;17.638;2022-07-29T04:27:04;7.53;;;6.32;;
62673;SDS011;62269;47.594;17.638;2022-07-29T04:27:51;6.25;;;5.65;;
62673;SDS011;62269;47.594;17.638;2022-07-29T04:28:47;8.27;;;6.22;;
62673;SDS011;62269;47.594;17.638;2022-07-29T04:29:34;7.80;;;5.78;;
62673;SDS011;62269;47.594;17.638;2022-07-29T04:30:20;7.30;;;6.60;;
62673;SDS011;62269;47.594;17.638;2022-07-29T04:31:07;6.68;;;5.47;;
62673;SDS011;62269;47.594;17.638;2022-07-29T04:31:55;6.53;;;5.93;;
62673;SDS011;62269;47.594;17.638;2022-07-29T04:32:42;6.70;;;5.68;;
62673;SDS011;62269;47.594;17.638;2022-07-29T04:33:28;6.18;;;5.57;;
62673;SDS011;62269;47.594;17.638;2022-07-29T04:34:15;6.53;;;5.65;;
62673;SDS011;62269;47.594;17.638;2022-07-29T04:35:03;7.28;;;5.95;;
62673;SDS011;62269;47.594;17.638;2022-07-29T04:35:50;6.20;;;5.53;;
62673;SDS011;62269;47.594;17.638;2022-07-29T04:37:27;7.82;;;5.47;;
62673;SDS011;62269;47.594;17.638;2022-07-29T04:38:14;7.10;;;5.70;;
62673;SDS011;62269;47.594;17.638;2022-07-29T04:39:02;5.68;;;5.18;;
62673;SDS011;62269;47.594;17.638;2022-07-29T04:39:50;9.93;;;5.78;;
62673;SDS011;62269;47.594;17.638;2022-07-29T04:40:36;6.62;;;5.50;;
62673;SDS011;62269;47.594;17.638;2022-07-29T04:41:24;6.10;;;5.50;;
62673;SDS011;62269;47.594;17.638;2022-07-29T04:42:18;5.60;;;5.05;;
62673;SDS011;62269;47.594;17.638;2022-07-29T04:43:13;5.97;;;5.37;;
62673;SDS011;62269;47.594;17.638;2022-07-29T04:44:01;5.75;;;5.25;;
62673;SDS011;62269;47.594;17.638;2022-07-29T04:44:52;6.90;;;5.12;;
62673;SDS011;62269;47.594;17.638;2022-07-29T04:45:39;6.37;;;5.72;;
62673;SDS011;62269;47.594;17.638;2022-07-29T04:46:26;8.75;;;5.37;;
62673;SDS011;62269;47.594;17.638;2022-07-29T04:47:13;8.73;;;5.47;;
62673;SDS011;62269;47.594;17.638;2022-07-29T04:48:00;9.48;;;6.43;;
62673;SDS011;62269;47.594;17.638;2022-07-29T04:48:47;7.12;;;5.70;;
62673;SDS011;62269;47.594;17.638;2022-07-29T04:49:36;7.10;;;5.80;;
62673;SDS011;62269;47.594;17.638;2022-07-29T04:50:24;6.20;;;5.60;;
62673;SDS011;62269;47.594;17.638;2022-07-29T04:51:11;7.53;;;6.05;;
62673;SDS011;62269;47.594;17.638;2022-07-29T04:51:58;8.27;;;5.90;;
62673;SDS011;62269;47.594;17.638;2022-07-29T04:52:45;7.30;;;5.68;;
62673;SDS011;62269;47.594;17.638;2022-07-29T04:53:31;6.35;;;5.45;;
62673;SDS011;62269;47.594;17.638;2022-07-29T04:54:18;6.18;;;5.47;;
62673;SDS011;62269;47.594;17.638;2022-07-29T04:55:05;8.45;;;5.85;;
62673;SDS011;62269;47.594;17.638;2022-07-29T04:55:52;8.25;;;6.93;;
62673;SDS011;62269;47.594;17.638;2022-07-29T04:56:39;8.40;;;5.50;;
62673;SDS011;62269;47.594;17.638;2022-07-29T04:57:26;6.28;;;5.68;;
62673;SDS011;62269;47.594;17.638;2022-07-29T04:58:13;6.00;;;5.22;;
62673;SDS011;62269;47.594;17.638;2022-07-29T04:59:00;7.35;;;5.50;;
62673;SDS011;62269;47.594;17.638;2022-07-29T04:59:47;6.95;;;5.90;;
62673;SDS011;62269;47.594;17.638;2022-07-29T05:00:34;6.50;;;5.90;;
62673;SDS011;62269;47.594;17.638;2022-07-29T05:01:21;9.32;;;6.10;;
62673;SDS011;62269;47.594;17.638;2022-07-29T05:02:08;6.12;;;5.53;;
62673;SDS011;62269;47.594;17.638;2022-07-29T05:02:56;7.07;;;5.25;;
62673;SDS011;62269;47.594;17.638;2022-07-29T05:03:43;6.30;;;5.65;;
62673;SDS011;62269;47.594;17.638;2022-07-29T05:04:31;7.60;;;5.62;;
62673;SDS011;62269;47.594;17.638;2022-07-29T05:05:18;6.20;;;5.60;;
62673;SDS011;62269;47.594;17.638;2022-07-29T05:06:05;6.43;;;5.68;;